sensor_id;sensor_type;location;lat;lon;timestamp;temperature;humidity
23507;DHT22;11930;53.076;18.250;2023-04-16T00:01:25;8.90;99.90
23507;DHT22;11930;53.076;18.250;2023-04-16T00:03:51;8.90;99.90
23507;DHT22;11930;53.076;18.250;2023-04-16T00:06:17;8.90;99.90
23507;DHT22;11930;53.076;18.250;2023-04-16T00:08:43;8.90;99.90
23507;DHT22;11930;53.076;18.250;2023-04-16T00:11:10;8.80;99.90
23507;DHT22;11930;53.076;18.250;2023-04-16T00:13:36;8.80;99.90
23507;DHT22;11930;53.076;18.250;2023-04-16T00:16:03;8.90;99.90
23507;DHT22;11930;53.076;18.250;2023-04-16T00:18:29;8.80;99.90
23507;DHT22;11930;53.076;18.250;2023-04-16T00:20:55;8.80;99.90
23507;DHT22;11930;53.076;18.250;2023-04-16T00:23:21;8.80;99.90
23507;DHT22;11930;53.076;18.250;2023-04-16T00:25:50;8.80;99.90
23507;DHT22;11930;53.076;18.250;2023-04-16T00:28:16;8.80;99.90
23507;DHT22;11930;53.076;18.250;2023-04-16T00:30:42;8.80;99.90
23507;DHT22;11930;53.076;18.250;2023-04-16T00:33:08;8.80;99.90
23507;DHT22;11930;53.076;18.250;2023-04-16T00:35:34;8.80;99.90
23507;DHT22;11930;53.076;18.250;2023-04-16T00:38:00;8.80;99.90
23507;DHT22;11930;53.076;18.250;2023-04-16T00:40:27;8.70;99.90
23507;DHT22;11930;53.076;18.250;2023-04-16T00:42:56;8.70;99.90
23507;DHT22;11930;53.076;18.250;2023-04-16T00:45:23;8.70;99.90
23507;DHT22;11930;53.076;18.250;2023-04-16T00:47:48;8.70;99.90
23507;DHT22;11930;53.076;18.250;2023-04-16T00:50:15;8.70;99.90
23507;DHT22;11930;53.076;18.250;2023-04-16T00:52:42;8.70;99.90
23507;DHT22;11930;53.076;18.250;2023-04-16T00:55:09;8.70;99.90
23507;DHT22;11930;53.076;18.250;2023-04-16T00:57:38;8.70;99.90
23507;DHT22;11930;53.076;18.250;2023-04-16T01:00:05;8.70;99.90
23507;DHT22;11930;53.076;18.250;2023-04-16T01:02:32;8.70;99.90
23507;DHT22;11930;53.076;18.250;2023-04-16T01:05:00;8.70;99.90
23507;DHT22;11930;53.076;18.250;2023-04-16T01:07:27;8.70;99.90
23507;DHT22;11930;53.076;18.250;2023-04-16T01:09:53;8.70;99.90
23507;DHT22;11930;53.076;18.250;2023-04-16T01:12:19;8.70;99.90
23507;DHT22;11930;53.076;18.250;2023-04-16T01:14:45;8.70;99.90
23507;DHT22;11930;53.076;18.250;2023-04-16T01:17:11;8.60;99.90
23507;DHT22;11930;53.076;18.250;2023-04-16T01:19:37;8.60;99.90
23507;DHT22;11930;53.076;18.250;2023-04-16T01:22:04;8.60;99.90
23507;DHT22;11930;53.076;18.250;2023-04-16T01:24:30;8.60;99.90
23507;DHT22;11930;53.076;18.250;2023-04-16T01:26:58;8.70;99.90
23507;DHT22;11930;53.076;18.250;2023-04-16T01:29:25;8.70;99.90
23507;DHT22;11930;53.076;18.250;2023-04-16T01:31:51;8.70;99.90
23507;DHT22;11930;53.076;18.250;2023-04-16T01:34:39;8.70;99.90
23507;DHT22;11930;53.076;18.250;2023-04-16T01:37:05;8.60;99.90
23507;DHT22;11930;53.076;18.250;2023-04-16T01:39:31;8.60;99.90
23507;DHT22;11930;53.076;18.250;2023-04-16T01:41:57;8.60;99.90
23507;DHT22;11930;53.076;18.250;2023-04-16T01:44:23;8.60;99.90
23507;DHT22;11930;53.076;18.250;2023-04-16T01:46:50;8.60;99.90
23507;DHT22;11930;53.076;18.250;2023-04-16T01:49:16;8.60;99.90
23507;DHT22;11930;53.076;18.250;2023-04-16T01:51:43;8.70;99.90
23507;DHT22;11930;53.076;18.250;2023-04-16T01:54:09;8.60;99.90
23507;DHT22;11930;53.076;18.250;2023-04-16T01:56:35;8.60;99.90
23507;DHT22;11930;53.076;18.250;2023-04-16T01:59:02;8.60;99.90
23507;DHT22;11930;53.076;18.250;2023-04-16T02:01:35;8.60;99.90
23507;DHT22;11930;53.076;18.250;2023-04-16T02:04:02;8.60;99.90
23507;DHT22;11930;53.076;18.250;2023-04-16T02:06:28;8.60;99.90
23507;DHT22;11930;53.076;18.250;2023-04-16T02:08:54;8.60;99.90
23507;DHT22;11930;53.076;18.250;2023-04-16T02:11:20;8.60;99.90
23507;DHT22;11930;53.076;18.250;2023-04-16T02:13:47;8.60;99.90
23507;DHT22;11930;53.076;18.250;2023-04-16T02:16:15;8.60;99.90
23507;DHT22;11930;53.076;18.250;2023-04-16T02:18:59;8.60;99.90
23507;DHT22;11930;53.076;18.250;2023-04-16T02:21:29;8.60;99.90
23507;DHT22;11930;53.076;18.250;2023-04-16T02:23:56;8.60;99.90
23507;DHT22;11930;53.076;18.250;2023-04-16T02:26:27;8.50;99.90
23507;DHT22;11930;53.076;18.250;2023-04-16T02:28:57;8.60;99.90
23507;DHT22;11930;53.076;18.250;2023-04-16T02:31:30;8.50;99.90
23507;DHT22;11930;53.076;18.250;2023-04-16T02:33:57;8.50;99.90
23507;DHT22;11930;53.076;18.250;2023-04-16T02:36:23;8.50;99.90
23507;DHT22;11930;53.076;18.250;2023-04-16T02:38:49;8.50;99.90
23507;DHT22;11930;53.076;18.250;2023-04-16T02:41:15;8.50;99.90
23507;DHT22;11930;53.076;18.250;2023-04-16T02:43:41;8.50;99.90
23507;DHT22;11930;53.076;18.250;2023-04-16T02:46:07;8.50;99.90
23507;DHT22;11930;53.076;18.250;2023-04-16T02:48:33;8.50;99.90
23507;DHT22;11930;53.076;18.250;2023-04-16T02:50:59;8.50;99.90
23507;DHT22;11930;53.076;18.250;2023-04-16T02:53:26;8.40;99.90
23507;DHT22;11930;53.076;18.250;2023-04-16T02:55:53;8.40;99.90
23507;DHT22;11930;53.076;18.250;2023-04-16T02:58:24;8.40;99.90
23507;DHT22;11930;53.076;18.250;2023-04-16T03:00:51;8.40;99.90
23507;DHT22;11930;53.076;18.250;2023-04-16T03:03:17;8.40;99.90
23507;DHT22;11930;53.076;18.250;2023-04-16T03:05:43;8.40;99.90
23507;DHT22;11930;53.076;18.250;2023-04-16T03:08:09;8.40;99.90
23507;DHT22;11930;53.076;18.250;2023-04-16T03:10:36;8.40;99.90
23507;DHT22;11930;53.076;18.250;2023-04-16T03:13:02;8.30;99.90
23507;DHT22;11930;53.076;18.250;2023-04-16T03:15:29;8.30;99.90
23507;DHT22;11930;53.076;18.250;2023-04-16T03:17:55;8.30;99.90
23507;DHT22;11930;53.076;18.250;2023-04-16T03:20:22;8.40;99.90
23507;DHT22;11930;53.076;18.250;2023-04-16T03:22:48;8.40;99.90
23507;DHT22;11930;53.076;18.250;2023-04-16T03:25:17;8.30;99.90
23507;DHT22;11930;53.076;18.250;2023-04-16T03:27:44;8.40;99.90
23507;DHT22;11930;53.076;18.250;2023-04-16T03:30:12;8.30;99.90
23507;DHT22;11930;53.076;18.250;2023-04-16T03:32:39;8.30;99.90
23507;DHT22;11930;53.076;18.250;2023-04-16T03:35:06;8.40;99.90
23507;DHT22;11930;53.076;18.250;2023-04-16T03:37:33;8.30;99.90
23507;DHT22;11930;53.076;18.250;2023-04-16T03:39:59;8.30;99.90
23507;DHT22;11930;53.076;18.250;2023-04-16T03:42:26;8.30;99.90
23507;DHT22;11930;53.076;18.250;2023-04-16T03:44:52;8.30;99.90
23507;DHT22;11930;53.076;18.250;2023-04-16T03:47:20;8.30;99.90
23507;DHT22;11930;53.076;18.250;2023-04-16T03:49:48;8.30;99.90
23507;DHT22;11930;53.076;18.250;2023-04-16T03:52:14;8.30;99.90
23507;DHT22;11930;53.076;18.250;2023-04-16T03:54:40;8.30;99.90
23507;DHT22;11930;53.076;18.250;2023-04-16T03:57:18;8.30;99.90
23507;DHT22;11930;53.076;18.250;2023-04-16T03:59:44;8.30;99.90
23507;DHT22;11930;53.076;18.250;2023-04-16T04:02:10;8.30;99.90
23507;DHT22;11930;53.076;18.250;2023-04-16T04:04:36;8.30;99.90
23507;DHT22;11930;53.076;18.250;2023-04-16T04:07:02;8.30;99.90
23507;DHT22;11930;53.076;18.250;2023-04-16T04:09:28;8.30;99.90
23507;DHT22;11930;53.076;18.250;2023-04-16T04:11:55;8.30;99.90
23507;DHT22;11930;53.076;18.250;2023-04-16T04:14:21;8.30;99.90
23507;DHT22;11930;53.076;18.250;2023-04-16T04:19:14;8.20;99.90
23507;DHT22;11930;53.076;18.250;2023-04-16T04:21:41;8.30;99.90
23507;DHT22;11930;53.076;18.250;2023-04-16T04:24:08;8.30;99.90
23507;DHT22;11930;53.076;18.250;2023-04-16T04:26:34;8.30;99.90
23507;DHT22;11930;53.076;18.250;2023-04-16T04:29:00;8.20;99.90
23507;DHT22;11930;53.076;18.250;2023-04-16T04:31:26;8.20;99.90
23507;DHT22;11930;53.076;18.250;2023-04-16T04:33:52;8.20;99.90
23507;DHT22;11930;53.076;18.250;2023-04-16T04:36:19;8.20;99.90
23507;DHT22;11930;53.076;18.250;2023-04-16T04:38:45;8.20;99.90
23507;DHT22;11930;53.076;18.250;2023-04-16T04:41:11;8.20;99.90
23507;DHT22;11930;53.076;18.250;2023-04-16T04:43:38;8.20;99.90
23507;DHT22;11930;53.076;18.250;2023-04-16T04:46:05;8.20;99.90
23507;DHT22;11930;53.076;18.250;2023-04-16T04:48:31;8.20;99.90
23507;DHT22;11930;53.076;18.250;2023-04-16T04:50:58;8.10;99.90
23507;DHT22;11930;53.076;18.250;2023-04-16T04:53:24;8.10;99.90
23507;DHT22;11930;53.076;18.250;2023-04-16T04:55:50;8.20;99.90
23507;DHT22;11930;53.076;18.250;2023-04-16T04:58:16;8.10;99.90
23507;DHT22;11930;53.076;18.250;2023-04-16T05:00:43;8.10;99.90
23507;DHT22;11930;53.076;18.250;2023-04-16T05:03:09;8.10;99.90
23507;DHT22;11930;53.076;18.250;2023-04-16T05:08:02;8.10;99.90
23507;DHT22;11930;53.076;18.250;2023-04-16T05:10:29;8.10;99.90
23507;DHT22;11930;53.076;18.250;2023-04-16T05:12:54;7.30;99.90
23507;DHT22;11930;53.076;18.250;2023-04-16T05:15:21;8.00;99.90
23507;DHT22;11930;53.076;18.250;2023-04-16T05:20:13;7.90;99.90
23507;DHT22;11930;53.076;18.250;2023-04-16T05:22:39;8.50;99.90
23507;DHT22;11930;53.076;18.250;2023-04-16T05:25:06;8.00;99.90
23507;DHT22;11930;53.076;18.250;2023-04-16T05:29:58;7.90;99.90
23507;DHT22;11930;53.076;18.250;2023-04-16T05:32:25;8.00;99.90
23507;DHT22;11930;53.076;18.250;2023-04-16T05:34:53;7.90;99.90
23507;DHT22;11930;53.076;18.250;2023-04-16T05:37:19;7.90;99.90
23507;DHT22;11930;53.076;18.250;2023-04-16T05:39:46;7.90;99.90
23507;DHT22;11930;53.076;18.250;2023-04-16T05:42:12;7.90;99.90
23507;DHT22;11930;53.076;18.250;2023-04-16T05:44:39;7.90;99.90
23507;DHT22;11930;53.076;18.250;2023-04-16T05:47:05;8.00;99.90
23507;DHT22;11930;53.076;18.250;2023-04-16T05:49:37;7.90;99.90
23507;DHT22;11930;53.076;18.250;2023-04-16T05:52:03;8.00;99.90
23507;DHT22;11930;53.076;18.250;2023-04-16T05:54:30;8.00;99.90
23507;DHT22;11930;53.076;18.250;2023-04-16T05:56:56;8.00;99.90
23507;DHT22;11930;53.076;18.250;2023-04-16T05:59:22;7.90;99.90
23507;DHT22;11930;53.076;18.250;2023-04-16T06:01:48;7.90;99.90
23507;DHT22;11930;53.076;18.250;2023-04-16T06:04:14;8.00;99.90
23507;DHT22;11930;53.076;18.250;2023-04-16T06:06:40;8.00;99.90
23507;DHT22;11930;53.076;18.250;2023-04-16T06:09:07;8.00;99.90
23507;DHT22;11930;53.076;18.250;2023-04-16T06:13:59;8.00;99.90
23507;DHT22;11930;53.076;18.250;2023-04-16T06:16:25;8.00;99.90
23507;DHT22;11930;53.076;18.250;2023-04-16T06:18:51;8.00;99.90
23507;DHT22;11930;53.076;18.250;2023-04-16T06:21:17;8.00;99.90
23507;DHT22;11930;53.076;18.250;2023-04-16T06:23:44;8.00;99.90
23507;DHT22;11930;53.076;18.250;2023-04-16T06:26:11;8.00;99.90
23507;DHT22;11930;53.076;18.250;2023-04-16T06:31:03;8.00;99.90
23507;DHT22;11930;53.076;18.250;2023-04-16T06:38:23;7.90;99.90
23507;DHT22;11930;53.076;18.250;2023-04-16T06:40:49;8.10;99.90
23507;DHT22;11930;53.076;18.250;2023-04-16T06:43:15;8.10;99.90
23507;DHT22;11930;53.076;18.250;2023-04-16T06:45:43;8.10;99.90
23507;DHT22;11930;53.076;18.250;2023-04-16T06:48:09;8.10;99.90
23507;DHT22;11930;53.076;18.250;2023-04-16T06:50:35;8.10;99.90
23507;DHT22;11930;53.076;18.250;2023-04-16T06:53:02;8.20;99.90
23507;DHT22;11930;53.076;18.250;2023-04-16T06:55:28;8.20;99.90
23507;DHT22;11930;53.076;18.250;2023-04-16T07:00:21;8.20;99.90
23507;DHT22;11930;53.076;18.250;2023-04-16T07:02:47;8.30;99.90
23507;DHT22;11930;53.076;18.250;2023-04-16T07:05:13;8.30;99.90
23507;DHT22;11930;53.076;18.250;2023-04-16T07:07:39;8.30;99.90
23507;DHT22;11930;53.076;18.250;2023-04-16T07:10:05;8.30;99.90
23507;DHT22;11930;53.076;18.250;2023-04-16T07:12:32;8.30;99.90
23507;DHT22;11930;53.076;18.250;2023-04-16T07:14:58;8.40;99.90
23507;DHT22;11930;53.076;18.250;2023-04-16T07:17:24;8.40;99.90
23507;DHT22;11930;53.076;18.250;2023-04-16T07:19:50;8.70;99.90
23507;DHT22;11930;53.076;18.250;2023-04-16T07:27:10;8.50;99.90
23507;DHT22;11930;53.076;18.250;2023-04-16T07:29:36;8.50;99.90
23507;DHT22;11930;53.076;18.250;2023-04-16T07:32:03;8.50;99.90
23507;DHT22;11930;53.076;18.250;2023-04-16T07:34:29;8.50;99.90
23507;DHT22;11930;53.076;18.250;2023-04-16T07:36:56;8.50;99.90
23507;DHT22;11930;53.076;18.250;2023-04-16T07:39:21;8.50;99.90
23507;DHT22;11930;53.076;18.250;2023-04-16T07:41:48;8.60;99.90
23507;DHT22;11930;53.076;18.250;2023-04-16T07:44:14;8.60;99.90
23507;DHT22;11930;53.076;18.250;2023-04-16T07:46:40;8.60;99.90
23507;DHT22;11930;53.076;18.250;2023-04-16T07:49:06;8.60;99.90
23507;DHT22;11930;53.076;18.250;2023-04-16T07:51:32;8.70;99.90
23507;DHT22;11930;53.076;18.250;2023-04-16T07:53:58;8.70;99.90
23507;DHT22;11930;53.076;18.250;2023-04-16T07:56:24;8.80;99.90
23507;DHT22;11930;53.076;18.250;2023-04-16T08:01:17;8.90;99.90
23507;DHT22;11930;53.076;18.250;2023-04-16T08:03:43;8.90;99.90
23507;DHT22;11930;53.076;18.250;2023-04-16T08:06:09;8.80;99.90
23507;DHT22;11930;53.076;18.250;2023-04-16T08:08:35;8.80;99.90
23507;DHT22;11930;53.076;18.250;2023-04-16T08:11:01;8.80;99.90
23507;DHT22;11930;53.076;18.250;2023-04-16T08:13:27;8.80;99.90
23507;DHT22;11930;53.076;18.250;2023-04-16T08:15:53;8.80;99.90
23507;DHT22;11930;53.076;18.250;2023-04-16T08:18:20;8.70;99.90
23507;DHT22;11930;53.076;18.250;2023-04-16T08:20:46;8.70;99.90
23507;DHT22;11930;53.076;18.250;2023-04-16T08:23:12;8.70;99.90
23507;DHT22;11930;53.076;18.250;2023-04-16T08:25:38;8.70;99.90
23507;DHT22;11930;53.076;18.250;2023-04-16T08:28:04;8.70;99.90
23507;DHT22;11930;53.076;18.250;2023-04-16T08:30:30;8.70;99.90
23507;DHT22;11930;53.076;18.250;2023-04-16T08:32:56;8.70;99.90
23507;DHT22;11930;53.076;18.250;2023-04-16T08:35:23;8.70;99.90
23507;DHT22;11930;53.076;18.250;2023-04-16T08:37:49;8.70;99.90
23507;DHT22;11930;53.076;18.250;2023-04-16T08:40:16;8.70;99.90
23507;DHT22;11930;53.076;18.250;2023-04-16T08:42:49;8.70;99.90
23507;DHT22;11930;53.076;18.250;2023-04-16T08:45:17;8.60;99.90
23507;DHT22;11930;53.076;18.250;2023-04-16T08:47:48;8.60;99.90
23507;DHT22;11930;53.076;18.250;2023-04-16T08:50:16;8.60;99.90
23507;DHT22;11930;53.076;18.250;2023-04-16T08:52:49;8.60;99.90
23507;DHT22;11930;53.076;18.250;2023-04-16T08:55:18;8.60;99.90
23507;DHT22;11930;53.076;18.250;2023-04-16T08:57:51;8.60;99.90
23507;DHT22;11930;53.076;18.250;2023-04-16T09:05:14;8.60;99.90
23507;DHT22;11930;53.076;18.250;2023-04-16T09:07:46;8.60;99.90
23507;DHT22;11930;53.076;18.250;2023-04-16T09:10:16;8.60;99.90
23507;DHT22;11930;53.076;18.250;2023-04-16T09:12:43;8.60;99.90
23507;DHT22;11930;53.076;18.250;2023-04-16T09:15:10;8.60;99.90
23507;DHT22;11930;53.076;18.250;2023-04-16T09:17:37;8.60;99.90
23507;DHT22;11930;53.076;18.250;2023-04-16T09:20:07;8.60;99.90
23507;DHT22;11930;53.076;18.250;2023-04-16T09:22:34;8.60;99.90
23507;DHT22;11930;53.076;18.250;2023-04-16T09:25:02;8.60;99.90
23507;DHT22;11930;53.076;18.250;2023-04-16T09:27:29;8.60;99.90
23507;DHT22;11930;53.076;18.250;2023-04-16T09:29:55;8.70;99.90
23507;DHT22;11930;53.076;18.250;2023-04-16T09:32:26;8.70;99.90
23507;DHT22;11930;53.076;18.250;2023-04-16T09:37:28;8.80;99.90
23507;DHT22;11930;53.076;18.250;2023-04-16T09:40:02;8.90;99.90
23507;DHT22;11930;53.076;18.250;2023-04-16T09:42:34;8.90;99.90
23507;DHT22;11930;53.076;18.250;2023-04-16T09:47:43;9.40;99.90
23507;DHT22;11930;53.076;18.250;2023-04-16T09:50:18;9.10;99.90
23507;DHT22;11930;53.076;18.250;2023-04-16T09:52:48;9.10;99.90
23507;DHT22;11930;53.076;18.250;2023-04-16T09:55:16;9.20;99.90
23507;DHT22;11930;53.076;18.250;2023-04-16T09:57:46;9.00;99.90
23507;DHT22;11930;53.076;18.250;2023-04-16T10:00:17;9.00;99.90
23507;DHT22;11930;53.076;18.250;2023-04-16T10:02:43;9.10;99.90
23507;DHT22;11930;53.076;18.250;2023-04-16T10:05:13;9.10;99.90
23507;DHT22;11930;53.076;18.250;2023-04-16T10:07:42;9.10;99.90
23507;DHT22;11930;53.076;18.250;2023-04-16T10:10:09;9.10;99.90
23507;DHT22;11930;53.076;18.250;2023-04-16T10:12:35;9.20;99.90
23507;DHT22;11930;53.076;18.250;2023-04-16T10:15:01;9.20;99.90
23507;DHT22;11930;53.076;18.250;2023-04-16T10:17:27;9.20;99.90
23507;DHT22;11930;53.076;18.250;2023-04-16T10:19:56;9.30;99.90
23507;DHT22;11930;53.076;18.250;2023-04-16T10:22:22;9.30;99.90
23507;DHT22;11930;53.076;18.250;2023-04-16T10:24:49;9.30;99.90
23507;DHT22;11930;53.076;18.250;2023-04-16T10:27:15;9.40;99.90
23507;DHT22;11930;53.076;18.250;2023-04-16T10:29:42;9.30;99.90
23507;DHT22;11930;53.076;18.250;2023-04-16T10:32:09;9.20;99.90
23507;DHT22;11930;53.076;18.250;2023-04-16T10:34:35;9.60;99.90
23507;DHT22;11930;53.076;18.250;2023-04-16T10:44:33;9.30;99.90
23507;DHT22;11930;53.076;18.250;2023-04-16T10:46:59;9.40;99.90
23507;DHT22;11930;53.076;18.250;2023-04-16T10:49:25;9.40;99.90
23507;DHT22;11930;53.076;18.250;2023-04-16T10:52:06;9.50;99.90
23507;DHT22;11930;53.076;18.250;2023-04-16T10:54:34;9.50;99.90
23507;DHT22;11930;53.076;18.250;2023-04-16T10:57:06;9.50;99.90
23507;DHT22;11930;53.076;18.250;2023-04-16T10:59:35;9.50;99.90
23507;DHT22;11930;53.076;18.250;2023-04-16T11:02:14;9.50;99.90
23507;DHT22;11930;53.076;18.250;2023-04-16T11:04:42;9.40;99.90
23507;DHT22;11930;53.076;18.250;2023-04-16T11:09:58;9.40;99.90
23507;DHT22;11930;53.076;18.250;2023-04-16T11:12:38;9.30;99.90
23507;DHT22;11930;53.076;18.250;2023-04-16T11:15:10;9.40;99.90
23507;DHT22;11930;53.076;18.250;2023-04-16T11:17:37;9.40;99.90
23507;DHT22;11930;53.076;18.250;2023-04-16T11:20:29;9.40;99.90
23507;DHT22;11930;53.076;18.250;2023-04-16T11:22:56;11.00;99.90
23507;DHT22;11930;53.076;18.250;2023-04-16T11:25:27;9.40;99.90
23507;DHT22;11930;53.076;18.250;2023-04-16T11:27:58;9.40;99.90
23507;DHT22;11930;53.076;18.250;2023-04-16T11:30:32;9.40;99.90
23507;DHT22;11930;53.076;18.250;2023-04-16T11:33:02;9.30;99.90
23507;DHT22;11930;53.076;18.250;2023-04-16T11:37:56;8.90;99.90
23507;DHT22;11930;53.076;18.250;2023-04-16T11:40:22;9.20;99.90
23507;DHT22;11930;53.076;18.250;2023-04-16T11:45:15;9.20;99.90
23507;DHT22;11930;53.076;18.250;2023-04-16T11:47:51;9.20;99.90
23507;DHT22;11930;53.076;18.250;2023-04-16T11:50:24;9.20;99.90
23507;DHT22;11930;53.076;18.250;2023-04-16T11:52:53;9.30;99.90
23507;DHT22;11930;53.076;18.250;2023-04-16T11:55:20;9.20;99.90
23507;DHT22;11930;53.076;18.250;2023-04-16T12:02:49;9.30;99.90
23507;DHT22;11930;53.076;18.250;2023-04-16T12:05:29;9.40;99.90
23507;DHT22;11930;53.076;18.250;2023-04-16T12:07:56;9.50;99.90
23507;DHT22;11930;53.076;18.250;2023-04-16T12:10:23;9.50;99.90
23507;DHT22;11930;53.076;18.250;2023-04-16T12:12:49;9.50;99.90
23507;DHT22;11930;53.076;18.250;2023-04-16T12:15:15;9.50;99.90
23507;DHT22;11930;53.076;18.250;2023-04-16T12:17:41;9.50;99.90
23507;DHT22;11930;53.076;18.250;2023-04-16T12:20:12;9.50;99.90
23507;DHT22;11930;53.076;18.250;2023-04-16T12:22:40;9.50;99.90
23507;DHT22;11930;53.076;18.250;2023-04-16T12:25:16;9.40;99.90
23507;DHT22;11930;53.076;18.250;2023-04-16T12:27:46;9.40;99.90
23507;DHT22;11930;53.076;18.250;2023-04-16T12:30:14;9.40;99.90
23507;DHT22;11930;53.076;18.250;2023-04-16T12:32:42;9.40;99.90
23507;DHT22;11930;53.076;18.250;2023-04-16T12:35:09;9.40;99.90
23507;DHT22;11930;53.076;18.250;2023-04-16T12:37:36;9.30;99.90
23507;DHT22;11930;53.076;18.250;2023-04-16T12:40:03;9.40;99.90
23507;DHT22;11930;53.076;18.250;2023-04-16T12:42:30;9.40;99.90
23507;DHT22;11930;53.076;18.250;2023-04-16T12:45:04;9.40;99.90
23507;DHT22;11930;53.076;18.250;2023-04-16T12:47:31;9.40;99.90
23507;DHT22;11930;53.076;18.250;2023-04-16T12:49:58;9.40;99.90
23507;DHT22;11930;53.076;18.250;2023-04-16T12:52:24;9.40;99.90
23507;DHT22;11930;53.076;18.250;2023-04-16T12:54:50;9.40;99.90
23507;DHT22;11930;53.076;18.250;2023-04-16T12:57:17;9.40;99.90
23507;DHT22;11930;53.076;18.250;2023-04-16T13:02:12;9.40;99.90
23507;DHT22;11930;53.076;18.250;2023-04-16T13:04:38;9.40;99.90
23507;DHT22;11930;53.076;18.250;2023-04-16T13:07:04;9.40;99.90
23507;DHT22;11930;53.076;18.250;2023-04-16T13:09:30;9.40;99.90
23507;DHT22;11930;53.076;18.250;2023-04-16T13:11:56;9.40;99.90
23507;DHT22;11930;53.076;18.250;2023-04-16T13:14:23;9.40;99.90
23507;DHT22;11930;53.076;18.250;2023-04-16T13:16:49;9.40;99.90
23507;DHT22;11930;53.076;18.250;2023-04-16T13:19:15;9.40;99.90
23507;DHT22;11930;53.076;18.250;2023-04-16T13:21:43;9.50;99.90
23507;DHT22;11930;53.076;18.250;2023-04-16T13:24:11;9.40;99.90
23507;DHT22;11930;53.076;18.250;2023-04-16T13:26:37;9.40;99.90
23507;DHT22;11930;53.076;18.250;2023-04-16T13:29:04;9.30;99.90
23507;DHT22;11930;53.076;18.250;2023-04-16T13:31:30;9.30;99.90
23507;DHT22;11930;53.076;18.250;2023-04-16T13:33:56;9.30;99.90
23507;DHT22;11930;53.076;18.250;2023-04-16T13:36:22;9.30;99.90
23507;DHT22;11930;53.076;18.250;2023-04-16T13:38:48;9.30;99.90
23507;DHT22;11930;53.076;18.250;2023-04-16T13:41:15;9.20;99.90
23507;DHT22;11930;53.076;18.250;2023-04-16T13:43:41;9.30;99.90
23507;DHT22;11930;53.076;18.250;2023-04-16T13:46:07;9.30;99.90
23507;DHT22;11930;53.076;18.250;2023-04-16T13:48:34;9.40;99.90
23507;DHT22;11930;53.076;18.250;2023-04-16T13:50:59;9.40;99.90
23507;DHT22;11930;53.076;18.250;2023-04-16T13:53:26;9.40;99.90
23507;DHT22;11930;53.076;18.250;2023-04-16T13:55:52;9.50;99.90
23507;DHT22;11930;53.076;18.250;2023-04-16T13:58:18;9.50;99.90
23507;DHT22;11930;53.076;18.250;2023-04-16T14:00:44;9.60;99.90
23507;DHT22;11930;53.076;18.250;2023-04-16T14:03:11;9.60;99.90
23507;DHT22;11930;53.076;18.250;2023-04-16T14:05:36;9.60;99.90
23507;DHT22;11930;53.076;18.250;2023-04-16T14:08:03;9.50;99.90
23507;DHT22;11930;53.076;18.250;2023-04-16T14:10:30;9.50;99.90
23507;DHT22;11930;53.076;18.250;2023-04-16T14:12:57;9.50;99.90
23507;DHT22;11930;53.076;18.250;2023-04-16T14:15:23;9.50;99.90
23507;DHT22;11930;53.076;18.250;2023-04-16T14:17:51;9.50;99.90
23507;DHT22;11930;53.076;18.250;2023-04-16T14:20:17;9.40;99.90
23507;DHT22;11930;53.076;18.250;2023-04-16T14:22:43;9.40;99.90
23507;DHT22;11930;53.076;18.250;2023-04-16T14:25:11;9.40;99.90
23507;DHT22;11930;53.076;18.250;2023-04-16T14:27:37;9.40;99.90
23507;DHT22;11930;53.076;18.250;2023-04-16T14:30:04;9.50;99.90
23507;DHT22;11930;53.076;18.250;2023-04-16T14:32:31;9.50;99.90
23507;DHT22;11930;53.076;18.250;2023-04-16T14:34:57;9.50;99.90
23507;DHT22;11930;53.076;18.250;2023-04-16T14:37:23;9.60;99.90
23507;DHT22;11930;53.076;18.250;2023-04-16T14:39:49;9.60;99.90
23507;DHT22;11930;53.076;18.250;2023-04-16T14:42:16;9.60;99.90
23507;DHT22;11930;53.076;18.250;2023-04-16T14:44:42;9.60;99.90
23507;DHT22;11930;53.076;18.250;2023-04-16T14:47:08;9.60;99.90
23507;DHT22;11930;53.076;18.250;2023-04-16T14:49:34;9.60;99.90
23507;DHT22;11930;53.076;18.250;2023-04-16T14:52:01;9.60;99.90
23507;DHT22;11930;53.076;18.250;2023-04-16T14:54:31;9.70;99.90
23507;DHT22;11930;53.076;18.250;2023-04-16T14:56:58;9.60;99.90
23507;DHT22;11930;53.076;18.250;2023-04-16T14:59:24;9.60;99.90
23507;DHT22;11930;53.076;18.250;2023-04-16T15:01:50;9.60;99.90
23507;DHT22;11930;53.076;18.250;2023-04-16T15:04:17;9.60;99.90
23507;DHT22;11930;53.076;18.250;2023-04-16T15:06:46;9.60;99.90
23507;DHT22;11930;53.076;18.250;2023-04-16T15:09:12;9.60;99.90
23507;DHT22;11930;53.076;18.250;2023-04-16T15:11:38;9.60;99.90
23507;DHT22;11930;53.076;18.250;2023-04-16T15:14:04;9.50;99.90
23507;DHT22;11930;53.076;18.250;2023-04-16T15:16:32;9.50;99.90
23507;DHT22;11930;53.076;18.250;2023-04-16T15:18:58;9.50;99.90
23507;DHT22;11930;53.076;18.250;2023-04-16T15:21:25;9.40;99.90
23507;DHT22;11930;53.076;18.250;2023-04-16T15:23:52;9.40;99.90
23507;DHT22;11930;53.076;18.250;2023-04-16T15:26:18;9.40;99.90
23507;DHT22;11930;53.076;18.250;2023-04-16T15:28:44;9.40;99.90
23507;DHT22;11930;53.076;18.250;2023-04-16T15:31:11;9.40;99.90
23507;DHT22;11930;53.076;18.250;2023-04-16T15:33:37;9.40;99.90
23507;DHT22;11930;53.076;18.250;2023-04-16T15:36:03;9.40;99.90
23507;DHT22;11930;53.076;18.250;2023-04-16T15:38:29;9.40;99.90
23507;DHT22;11930;53.076;18.250;2023-04-16T15:40:59;9.40;99.90
23507;DHT22;11930;53.076;18.250;2023-04-16T15:43:28;9.40;99.90
23507;DHT22;11930;53.076;18.250;2023-04-16T15:45:55;9.40;99.90
23507;DHT22;11930;53.076;18.250;2023-04-16T15:48:22;9.40;99.90
23507;DHT22;11930;53.076;18.250;2023-04-16T15:50:49;9.40;99.90
23507;DHT22;11930;53.076;18.250;2023-04-16T15:53:15;9.40;99.90
23507;DHT22;11930;53.076;18.250;2023-04-16T15:55:43;9.40;99.90
23507;DHT22;11930;53.076;18.250;2023-04-16T15:58:09;9.30;99.90
23507;DHT22;11930;53.076;18.250;2023-04-16T16:00:36;9.30;99.90
23507;DHT22;11930;53.076;18.250;2023-04-16T16:03:02;9.30;99.90
23507;DHT22;11930;53.076;18.250;2023-04-16T16:05:28;9.30;99.90
23507;DHT22;11930;53.076;18.250;2023-04-16T16:07:56;9.20;99.90
23507;DHT22;11930;53.076;18.250;2023-04-16T16:10:23;9.30;99.90
23507;DHT22;11930;53.076;18.250;2023-04-16T16:12:49;9.30;99.90
23507;DHT22;11930;53.076;18.250;2023-04-16T16:15:15;9.20;99.90
23507;DHT22;11930;53.076;18.250;2023-04-16T16:17:41;9.30;99.90
23507;DHT22;11930;53.076;18.250;2023-04-16T16:20:07;9.30;99.90
23507;DHT22;11930;53.076;18.250;2023-04-16T16:22:37;9.30;99.90
23507;DHT22;11930;53.076;18.250;2023-04-16T16:25:04;9.30;99.90
23507;DHT22;11930;53.076;18.250;2023-04-16T16:27:30;9.30;99.90
23507;DHT22;11930;53.076;18.250;2023-04-16T16:29:57;9.30;99.90
23507;DHT22;11930;53.076;18.250;2023-04-16T16:32:22;9.30;99.90